Sterlington, Louisiana
Current Conditions -  °F | °C
As of 3:15 PM on Tuesday 21 Oct 2014 (Local Time) from KBQP Reporting Station
Clear Clear  
Wind Chill: 79°   Ceiling: Unl
Heat Index: 80°   Visibility: 10mi
Dew Point: 60°   Wind: 5mph
Humidity: 51%   Direction: 290°WNW
Pressure: 30.04"   Gusts: NA
Location:  32.7°N, 92.09°W
Report Text: KBQP 212015Z AUTO 29004KT 10SM CLR 26/16 A3004 RMK AO2 T02630155
Loading
Personal Weather Stations






























Interactive Weather Map
Tropical Storm Tracking
New forecast layout! Learn more

10-Day Weather Forecast

Advertisements
Track Severe Weather on mobile